Time;durP1;ratioP1;P1;durP2;ratioP2;P2;SDS_P1;SDS_P2;PMS_P1;PMS_P2;Temp;Humidity;BMP_temperature;BMP_pressure;BME280_temperature;BME280_humidity;BME280_pressure;Samples;Min_cycle;Max_cycle;Signal;HPM_P1;HPM_P2
2023/10/20 00:01:11;;;;;;;2.28;1.80;;;;;;;;;;5009093;28;20041;-74
2023/10/20 00:03:37;;;;;;;2.30;1.77;;;;;;;;;;5004416;28;20037;-74
2023/10/20 00:06:04;;;;;;;1.98;1.35;;;;;;;;;;5005231;28;20066;-74
2023/10/20 00:08:30;;;;;;;2.55;1.83;;;;;;;;;;5004489;28;20041;-74
2023/10/20 00:11:03;;;;;;;2.50;1.67;;;;;;;;;;5004588;28;20153;-74
2023/10/20 00:13:29;;;;;;;2.20;1.90;;;;;;;;;;4994121;28;20037;-74
2023/10/20 00:15:54;;;;;;;2.53;1.65;;;;;;;;;;5005210;28;20029;-74
2023/10/20 00:18:20;;;;;;;4.93;1.70;;;;;;;;;;4986716;28;20724;-74
2023/10/20 00:20:46;;;;;;;2.85;1.80;;;;;;;;;;5005291;28;20057;-74
2023/10/20 00:23:14;;;;;;;1.77;1.50;;;;;;;;;;5004653;28;20424;-74
2023/10/20 00:25:39;;;;;;;2.17;1.70;;;;;;;;;;5004880;28;20583;-74
2023/10/20 00:28:05;;;;;;;4.53;1.60;;;;;;;;;;5006465;28;20144;-74
2023/10/20 00:30:30;;;;;;;2.28;1.73;;;;;;;;;;5011002;28;20069;-74
2023/10/20 00:32:56;;;;;;;2.33;1.90;;;;;;;;;;5017913;28;20045;-74
2023/10/20 00:35:21;;;;;;;2.50;1.92;;;;;;;;;;4992597;28;20044;-74
2023/10/20 00:37:47;;;;;;;2.70;1.70;;;;;;;;;;4986918;28;20041;-74
2023/10/20 00:40:12;;;;;;;2.05;1.80;;;;;;;;;;5004646;28;20501;-74
2023/10/20 00:42:38;;;;;;;2.13;1.90;;;;;;;;;;4986398;28;20042;-74
2023/10/20 00:45:04;;;;;;;3.22;1.88;;;;;;;;;;5003960;28;20057;-74
2023/10/20 00:47:31;;;;;;;2.67;1.50;;;;;;;;;;4986489;28;20038;-73
2023/10/20 00:49:58;;;;;;;3.28;1.67;;;;;;;;;;5004247;28;20042;-74
2023/10/20 00:52:25;;;;;;;3.95;1.60;;;;;;;;;;5004303;28;20026;-73
2023/10/20 00:54:50;;;;;;;1.63;1.52;;;;;;;;;;5004141;28;20042;-74
2023/10/20 00:57:17;;;;;;;3.72;1.88;;;;;;;;;;5005115;28;20061;-73
2023/10/20 00:59:43;;;;;;;2.22;1.65;;;;;;;;;;5020127;28;20057;-74
2023/10/20 01:02:09;;;;;;;3.45;1.67;;;;;;;;;;5004176;28;20041;-73
2023/10/20 01:04:35;;;;;;;3.72;1.88;;;;;;;;;;5004078;28;20085;-74
2023/10/20 01:07:00;;;;;;;2.30;2.00;;;;;;;;;;4986558;28;20014;-73
2023/10/20 01:09:26;;;;;;;3.08;1.80;;;;;;;;;;5004421;28;20077;-74
2023/10/20 01:11:52;;;;;;;2.85;1.80;;;;;;;;;;4985930;28;20042;-74
2023/10/20 01:14:17;;;;;;;1.70;1.60;;;;;;;;;;5013175;28;21162;-73
2023/10/20 01:16:43;;;;;;;2.63;1.60;;;;;;;;;;5012756;28;20104;-74
2023/10/20 01:19:08;;;;;;;2.58;1.98;;;;;;;;;;5004750;28;20026;-74
2023/10/20 01:21:33;;;;;;;2.67;1.73;;;;;;;;;;4992481;28;20037;-73
2023/10/20 01:24:02;;;;;;;4.80;1.75;;;;;;;;;;5004045;28;20045;-73
2023/10/20 01:26:29;;;;;;;2.15;1.67;;;;;;;;;;5021395;28;20034;-74
2023/10/20 01:28:55;;;;;;;3.00;2.00;;;;;;;;;;5023680;28;20562;-74
2023/10/20 01:31:20;;;;;;;2.95;2.00;;;;;;;;;;5024532;28;20029;-74
2023/10/20 01:33:46;;;;;;;2.60;1.85;;;;;;;;;;5023349;28;20080;-74
2023/10/20 01:36:11;;;;;;;3.83;2.00;;;;;;;;;;5022060;28;20516;-73
2023/10/20 01:38:36;;;;;;;2.83;1.90;;;;;;;;;;5024123;28;20041;-74
2023/10/20 01:41:02;;;;;;;2.60;2.00;;;;;;;;;;5024052;28;20041;-74
2023/10/20 01:43:28;;;;;;;2.30;1.80;;;;;;;;;;5024193;28;20417;-74
2023/10/20 01:45:54;;;;;;;2.78;1.60;;;;;;;;;;5023678;28;20199;-74
2023/10/20 01:48:19;;;;;;;3.67;1.63;;;;;;;;;;5011166;28;20153;-73
2023/10/20 01:50:44;;;;;;;1.77;1.67;;;;;;;;;;5008387;28;20041;-74
2023/10/20 01:53:10;;;;;;;2.10;1.60;;;;;;;;;;5016305;28;20046;-74
2023/10/20 01:55:39;;;;;;;3.40;2.00;;;;;;;;;;5017500;28;20048;-73
2023/10/20 01:58:04;;;;;;;2.55;1.70;;;;;;;;;;5016494;28;20100;-74
2023/10/20 02:00:29;;;;;;;4.32;2.00;;;;;;;;;;5015184;28;20045;-74
2023/10/20 02:02:55;;;;;;;2.25;1.92;;;;;;;;;;5005848;28;20088;-73
2023/10/20 02:05:20;;;;;;;2.95;1.85;;;;;;;;;;4989515;28;20052;-74
2023/10/20 02:07:45;;;;;;;2.42;1.80;;;;;;;;;;4989227;28;20025;-74
2023/10/20 02:10:11;;;;;;;3.53;2.13;;;;;;;;;;5007784;28;20026;-74
2023/10/20 02:12:36;;;;;;;4.50;1.95;;;;;;;;;;5006754;28;20476;-74
2023/10/20 02:15:03;;;;;;;2.20;1.73;;;;;;;;;;5006384;28;20137;-73
2023/10/20 02:17:29;;;;;;;3.50;2.10;;;;;;;;;;4989337;28;20605;-73
2023/10/20 02:19:54;;;;;;;4.30;2.30;;;;;;;;;;5023349;28;20112;-74
2023/10/20 02:22:19;;;;;;;5.45;2.00;;;;;;;;;;5026898;28;20639;-74
2023/10/20 02:24:45;;;;;;;4.70;2.60;;;;;;;;;;5026339;28;20038;-73
2023/10/20 02:27:10;;;;;;;4.18;2.10;;;;;;;;;;5024699;28;20080;-74
2023/10/20 02:29:35;;;;;;;4.50;2.58;;;;;;;;;;5025889;28;20041;-73
2023/10/20 02:32:01;;;;;;;3.78;2.13;;;;;;;;;;5026427;28;20417;-74
2023/10/20 02:34:26;;;;;;;2.92;2.45;;;;;;;;;;5023433;28;20057;-74
2023/10/20 02:36:52;;;;;;;3.85;2.42;;;;;;;;;;5011265;28;20034;-74
2023/10/20 02:39:17;;;;;;;2.60;2.08;;;;;;;;;;5026009;28;20045;-74
2023/10/20 02:41:43;;;;;;;3.35;2.30;;;;;;;;;;5025857;28;20043;-74
2023/10/20 02:44:08;;;;;;;3.17;2.28;;;;;;;;;;5026033;28;20072;-74
2023/10/20 02:46:33;;;;;;;4.05;2.55;;;;;;;;;;5007870;28;20133;-74
2023/10/20 02:48:59;;;;;;;3.28;2.20;;;;;;;;;;5026555;28;20025;-74
2023/10/20 02:51:24;;;;;;;3.47;2.38;;;;;;;;;;5025913;28;20068;-74
2023/10/20 02:53:50;;;;;;;5.50;2.75;;;;;;;;;;5008035;28;20048;-74
2023/10/20 02:56:20;;;;;;;3.63;2.70;;;;;;;;;;5025818;28;20034;-74
2023/10/20 02:58:47;;;;;;;4.28;2.45;;;;;;;;;;5012418;28;20157;-74
2023/10/20 03:01:13;;;;;;;4.07;2.40;;;;;;;;;;5022243;28;20037;-74
2023/10/20 03:03:39;;;;;;;2.90;2.40;;;;;;;;;;5026012;28;20056;-74
2023/10/20 03:06:05;;;;;;;4.25;2.80;;;;;;;;;;5008065;28;20029;-74
2023/10/20 03:08:31;;;;;;;5.78;2.85;;;;;;;;;;5008633;28;20033;-74
2023/10/20 03:10:59;;;;;;;8.73;3.13;;;;;;;;;;5030538;28;20033;-74
2023/10/20 03:13:25;;;;;;;5.60;3.35;;;;;;;;;;5021098;28;20036;-74
2023/10/20 03:15:51;;;;;;;5.47;3.05;;;;;;;;;;5015906;28;20075;-74
2023/10/20 03:18:17;;;;;;;5.38;3.20;;;;;;;;;;5025824;28;20095;-74
2023/10/20 03:20:43;;;;;;;5.05;2.95;;;;;;;;;;5025311;28;20041;-74
2023/10/20 03:23:10;;;;;;;4.32;3.10;;;;;;;;;;5007223;28;20044;-75
2023/10/20 03:25:36;;;;;;;6.28;3.17;;;;;;;;;;5025449;28;20217;-74
2023/10/20 03:28:03;;;;;;;4.45;2.97;;;;;;;;;;5025289;28;20028;-74
2023/10/20 03:30:29;;;;;;;5.70;3.90;;;;;;;;;;5025482;28;20120;-74
2023/10/20 03:32:55;;;;;;;9.18;3.33;;;;;;;;;;5023736;28;20663;-74
2023/10/20 03:35:21;;;;;;;5.32;3.30;;;;;;;;;;5025013;28;20397;-74
2023/10/20 03:37:51;;;;;;;5.13;3.33;;;;;;;;;;5025058;28;20013;-74
2023/10/20 03:40:18;;;;;;;6.20;3.72;;;;;;;;;;5025469;28;20053;-74
2023/10/20 03:42:43;;;;;;;7.70;3.38;;;;;;;;;;5024905;28;20041;-74
2023/10/20 03:45:10;;;;;;;6.15;3.45;;;;;;;;;;5024770;28;20048;-74
2023/10/20 03:47:39;;;;;;;4.68;3.47;;;;;;;;;;5024543;28;20029;-74
2023/10/20 03:50:15;;;;;;;10.48;3.80;;;;;;;;;;5023230;28;20509;-74
2023/10/20 03:52:41;;;;;;;6.38;3.58;;;;;;;;;;5006541;28;20029;-73
2023/10/20 03:55:13;;;;;;;9.65;4.07;;;;;;;;;;5025375;28;20129;-74
2023/10/20 03:57:39;;;;;;;5.72;3.38;;;;;;;;;;5019169;28;20108;-73
2023/10/20 04:00:15;;;;;;;5.75;3.45;;;;;;;;;;5011250;28;20733;-74
2023/10/20 04:02:41;;;;;;;7.22;3.47;;;;;;;;;;5024244;28;20041;-74
2023/10/20 04:05:07;;;;;;;5.65;3.30;;;;;;;;;;5024290;28;20494;-74
2023/10/20 04:07:32;;;;;;;6.00;3.17;;;;;;;;;;5006223;28;20409;-73
2023/10/20 04:09:59;;;;;;;7.10;3.58;;;;;;;;;;5007174;28;20167;-74
2023/10/20 04:12:24;;;;;;;6.68;3.13;;;;;;;;;;5024548;28;20033;-74
2023/10/20 04:14:53;;;;;;;5.63;3.22;;;;;;;;;;5024472;28;20061;-74
2023/10/20 04:17:19;;;;;;;5.13;3.28;;;;;;;;;;5024512;28;20048;-74
2023/10/20 04:19:45;;;;;;;7.65;3.35;;;;;;;;;;5024482;28;20026;-73
2023/10/20 04:22:13;;;;;;;5.85;3.45;;;;;;;;;;5007462;28;20033;-73
2023/10/20 04:24:39;;;;;;;8.02;3.35;;;;;;;;;;5024603;28;20041;-73
2023/10/20 04:27:05;;;;;;;5.63;3.55;;;;;;;;;;5024291;28;20037;-74
2023/10/20 04:29:47;;;;;;;5.93;3.83;;;;;;;;;;5008095;28;20040;-74
2023/10/20 04:51:28;;;;;;;5.25;3.42;;;;;;;;;;5024256;28;20044;-74
2023/10/20 04:54:22;;;;;;;8.98;4.45;;;;;;;;;;5024210;28;20048;-74
2023/10/20 04:59:31;;;;;;;;;;;;;;;;;;5006579;28;20535;-74
2023/10/20 05:02:09;;;;;;;13.10;3.95;;;;;;;;;;5005967;28;19913;-74
2023/10/20 05:04:40;;;;;;;7.68;4.13;;;;;;;;;;5006121;28;20022;-74
2023/10/20 05:07:08;;;;;;;7.70;3.90;;;;;;;;;;5023804;28;20022;-74
2023/10/20 05:09:40;;;;;;;5.90;4.05;;;;;;;;;;5023528;28;20041;-74
2023/10/20 05:12:06;;;;;;;6.50;4.28;;;;;;;;;;5024231;28;20041;-74
2023/10/20 05:14:32;;;;;;;6.40;3.92;;;;;;;;;;5005483;28;20789;-74
2023/10/20 05:16:57;;;;;;;12.18;4.47;;;;;;;;;;5023819;28;20592;-74
2023/10/20 05:19:23;;;;;;;6.28;4.10;;;;;;;;;;5024074;28;20022;-74
2023/10/20 05:21:48;;;;;;;5.57;4.05;;;;;;;;;;5023613;28;20106;-74
2023/10/20 05:24:14;;;;;;;7.68;4.40;;;;;;;;;;5005729;28;20037;-74
2023/10/20 05:26:39;;;;;;;7.40;4.07;;;;;;;;;;5005958;28;20041;-74
2023/10/20 05:29:05;;;;;;;7.68;4.25;;;;;;;;;;5023182;28;20421;-74
2023/10/20 05:31:30;;;;;;;8.52;4.28;;;;;;;;;;5023569;28;20029;-74
2023/10/20 05:33:56;;;;;;;8.27;4.47;;;;;;;;;;5004204;28;20022;-74
2023/10/20 05:36:21;;;;;;;6.75;4.20;;;;;;;;;;5003680;28;20211;-76
2023/10/20 05:38:47;;;;;;;6.63;3.88;;;;;;;;;;5007175;28;20045;-73
2023/10/20 05:41:12;;;;;;;10.40;5.13;;;;;;;;;;5013154;28;20049;-73
2023/10/20 05:43:38;;;;;;;8.45;4.70;;;;;;;;;;5018487;28;20044;-73
2023/10/20 05:46:04;;;;;;;21.98;12.85;;;;;;;;;;5028251;28;20120;-73
2023/10/20 05:48:31;;;;;;;12.63;6.88;;;;;;;;;;5023772;28;20033;-73
2023/10/20 05:50:59;;;;;;;9.40;4.63;;;;;;;;;;5031461;28;20072;-73
2023/10/20 05:53:25;;;;;;;7.85;5.03;;;;;;;;;;5035781;28;20046;-73
2023/10/20 05:55:51;;;;;;;10.98;5.53;;;;;;;;;;5024990;28;20122;-73
2023/10/20 05:58:16;;;;;;;8.80;5.40;;;;;;;;;;5015160;28;20488;-73
2023/10/20 06:00:42;;;;;;;8.73;5.97;;;;;;;;;;5006383;28;20479;-73
2023/10/20 06:03:08;;;;;;;10.70;5.70;;;;;;;;;;5006686;28;20049;-72
2023/10/20 06:05:33;;;;;;;9.52;6.00;;;;;;;;;;5007110;28;20041;-73
2023/10/20 06:07:59;;;;;;;9.98;4.50;;;;;;;;;;5006469;28;20029;-73
2023/10/20 06:10:25;;;;;;;7.70;4.68;;;;;;;;;;5004906;28;20661;-73
2023/10/20 06:12:52;;;;;;;10.75;5.25;;;;;;;;;;5005625;28;20176;-73
2023/10/20 06:15:19;;;;;;;6.78;4.93;;;;;;;;;;4994034;28;20046;-73
2023/10/20 06:17:45;;;;;;;8.73;5.13;;;;;;;;;;4987255;28;20042;-72
2023/10/20 06:20:10;;;;;;;8.00;5.72;;;;;;;;;;4987232;28;20046;-72
2023/10/20 06:22:35;;;;;;;13.48;5.40;;;;;;;;;;4999620;28;20023;-72
2023/10/20 06:25:01;;;;;;;7.72;4.97;;;;;;;;;;4987991;28;20628;-72
2023/10/20 06:27:26;;;;;;;6.80;4.25;;;;;;;;;;4985030;28;20543;-72
2023/10/20 06:30:53;;;;;;;8.63;4.10;;;;;;;;;;4985851;28;20045;-72
2023/10/20 06:32:47;;;;;;;7.03;4.22;;;;;;;;;;4981559;28;20042;-72
2023/10/20 06:35:13;;;;;;;8.63;4.18;;;;;;;;;;4986764;28;20046;-72
2023/10/20 06:37:54;;;;;;;6.50;4.40;;;;;;;;;;4985477;28;20037;-72
2023/10/20 06:40:20;;;;;;;5.78;3.90;;;;;;;;;;4986438;28;20030;-72
2023/10/20 06:42:46;;;;;;;6.07;3.75;;;;;;;;;;4986510;28;20050;-72
2023/10/20 06:45:11;;;;;;;5.57;4.18;;;;;;;;;;4998781;28;20034;-72
2023/10/20 06:47:39;;;;;;;8.88;3.83;;;;;;;;;;5004083;28;20497;-72
2023/10/20 06:50:05;;;;;;;4.18;3.22;;;;;;;;;;4998751;28;20091;-72
2023/10/20 06:52:30;;;;;;;5.70;3.50;;;;;;;;;;4989492;28;20023;-72
2023/10/20 06:54:56;;;;;;;7.95;3.17;;;;;;;;;;5006231;28;20472;-72
2023/10/20 06:57:23;;;;;;;4.53;3.35;;;;;;;;;;5013393;28;20038;-72
2023/10/20 06:59:51;;;;;;;4.93;3.55;;;;;;;;;;5006169;28;20516;-72
2023/10/20 07:02:16;;;;;;;5.45;3.70;;;;;;;;;;5005261;28;20152;-71
2023/10/20 07:04:42;;;;;;;6.13;3.10;;;;;;;;;;5018780;28;20104;-72
2023/10/20 07:07:13;;;;;;;4.80;3.50;;;;;;;;;;5008533;28;20117;-72
2023/10/20 07:09:40;;;;;;;6.25;3.83;;;;;;;;;;4992442;28;20066;-72
2023/10/20 07:12:06;;;;;;;7.35;3.40;;;;;;;;;;5023292;28;20030;-72
2023/10/20 07:14:35;;;;;;;5.28;3.17;;;;;;;;;;5003507;28;20375;-72
2023/10/20 07:17:06;;;;;;;5.78;3.40;;;;;;;;;;5004393;28;20041;-72
2023/10/20 07:19:35;;;;;;;4.15;3.10;;;;;;;;;;5014426;28;20055;-72
2023/10/20 07:22:05;;;;;;;4.18;3.10;;;;;;;;;;5022259;28;20028;-71
2023/10/20 07:24:31;;;;;;;4.03;2.95;;;;;;;;;;5022368;28;20047;-71
2023/10/20 07:26:57;;;;;;;5.60;3.20;;;;;;;;;;5024873;28;20034;-72
2023/10/20 07:29:22;;;;;;;9.23;3.40;;;;;;;;;;5023528;28;20039;-72
2023/10/20 07:31:48;;;;;;;4.55;3.08;;;;;;;;;;5020928;28;20033;-72
2023/10/20 07:34:14;;;;;;;5.75;3.40;;;;;;;;;;5023590;28;20171;-72
2023/10/20 07:36:40;;;;;;;3.03;2.72;;;;;;;;;;5017433;28;20045;-72
2023/10/20 07:39:08;;;;;;;5.13;3.00;;;;;;;;;;5015155;28;20037;-72
2023/10/20 07:41:35;;;;;;;5.45;3.05;;;;;;;;;;5021740;28;20038;-72
2023/10/20 07:44:01;;;;;;;3.78;2.10;;;;;;;;;;5003029;28;20157;-72
2023/10/20 07:46:27;;;;;;;3.95;2.67;;;;;;;;;;5012994;28;20781;-72
2023/10/20 07:48:52;;;;;;;6.32;3.00;;;;;;;;;;5004503;28;20121;-72
2023/10/20 07:51:18;;;;;;;6.15;2.70;;;;;;;;;;5011544;28;20078;-72
2023/10/20 07:53:44;;;;;;;5.32;3.15;;;;;;;;;;4995022;28;20451;-72
2023/10/20 07:56:09;;;;;;;9.68;3.88;;;;;;;;;;5007810;28;20058;-72
2023/10/20 07:58:34;;;;;;;5.70;3.10;;;;;;;;;;5017407;28;20552;-72
2023/10/20 08:01:00;;;;;;;8.02;3.50;;;;;;;;;;5021781;28;20060;-72
2023/10/20 08:03:26;;;;;;;8.60;4.30;;;;;;;;;;5002621;28;20532;-72
2023/10/20 08:05:52;;;;;;;5.68;3.33;;;;;;;;;;4998289;28;20120;-73
2023/10/20 08:08:18;;;;;;;5.43;2.50;;;;;;;;;;5015887;28;20041;-72
2023/10/20 08:10:43;;;;;;;2.95;1.98;;;;;;;;;;5016943;28;20047;-72
2023/10/20 08:13:09;;;;;;;4.25;2.63;;;;;;;;;;5015542;28;20037;-73
2023/10/20 08:15:38;;;;;;;3.67;2.05;;;;;;;;;;5012056;28;20508;-73
2023/10/20 08:18:06;;;;;;;3.25;2.05;;;;;;;;;;5003494;28;20475;-74
2023/10/20 08:20:32;;;;;;;3.17;2.13;;;;;;;;;;5018790;28;20069;-73
2023/10/20 08:22:57;;;;;;;2.40;1.90;;;;;;;;;;5023805;28;20117;-73
2023/10/20 08:25:23;;;;;;;4.78;2.45;;;;;;;;;;5006533;28;20025;-74
2023/10/20 08:27:48;;;;;;;4.95;2.15;;;;;;;;;;5024233;28;20033;-73
2023/10/20 08:30:15;;;;;;;2.90;2.20;;;;;;;;;;5025327;28;20057;-73
2023/10/20 08:32:40;;;;;;;2.83;2.20;;;;;;;;;;5031796;28;20045;-73
2023/10/20 08:35:09;;;;;;;2.67;2.10;;;;;;;;;;5037318;28;20032;-73
2023/10/20 08:37:35;;;;;;;3.40;2.30;;;;;;;;;;5028081;28;20062;-73
2023/10/20 08:40:01;;;;;;;3.85;2.80;;;;;;;;;;5024725;28;20032;-74
2023/10/20 08:42:26;;;;;;;3.75;2.55;;;;;;;;;;5003215;28;20026;-74
2023/10/20 08:44:52;;;;;;;3.67;2.50;;;;;;;;;;5001025;28;20516;-73
2023/10/20 08:47:19;;;;;;;4.35;2.50;;;;;;;;;;5023334;28;20060;-73
2023/10/20 08:49:45;;;;;;;4.15;2.38;;;;;;;;;;5005813;28;20029;-73
2023/10/20 08:52:12;;;;;;;3.72;2.28;;;;;;;;;;5024788;28;20044;-72
2023/10/20 08:54:38;;;;;;;5.40;1.70;;;;;;;;;;5023186;28;20037;-72
2023/10/20 08:57:06;;;;;;;1.98;1.40;;;;;;;;;;5022993;28;20103;-72
2023/10/20 08:59:32;;;;;;;1.50;1.20;;;;;;;;;;5005007;28;20034;-72
2023/10/20 09:01:58;;;;;;;1.42;1.17;;;;;;;;;;5023104;28;20509;-73
2023/10/20 09:04:26;;;;;;;1.30;0.95;;;;;;;;;;5018402;28;20139;-73
2023/10/20 09:06:52;;;;;;;1.17;0.95;;;;;;;;;;5021001;28;20025;-73
2023/10/20 09:09:19;;;;;;;1.10;0.77;;;;;;;;;;5019140;28;20832;-73
2023/10/20 09:11:45;;;;;;;2.65;1.00;;;;;;;;;;5023831;28;20120;-73
2023/10/20 09:14:12;;;;;;;1.45;0.90;;;;;;;;;;5022677;28;20087;-73
2023/10/20 09:16:38;;;;;;;1.73;1.02;;;;;;;;;;5027024;28;20028;-73
2023/10/20 09:19:04;;;;;;;1.15;1.05;;;;;;;;;;5028025;28;20099;-73
2023/10/20 09:21:30;;;;;;;2.90;1.10;;;;;;;;;;5026052;28;20041;-72
2023/10/20 09:24:07;;;;;;;1.85;1.10;;;;;;;;;;5005891;28;20083;-73
2023/10/20 09:26:35;;;;;;;2.67;1.25;;;;;;;;;;5001094;28;20429;-72
2023/10/20 09:29:01;;;;;;;2.75;1.45;;;;;;;;;;5002453;28;20041;-73
2023/10/20 09:31:27;;;;;;;4.90;1.42;;;;;;;;;;5022278;28;20026;-74
2023/10/20 09:33:53;;;;;;;3.17;1.67;;;;;;;;;;5015564;28;20123;-73
2023/10/20 09:36:19;;;;;;;2.55;1.60;;;;;;;;;;5046789;28;20112;-73
2023/10/20 09:38:49;;;;;;;1.70;1.55;;;;;;;;;;5046607;28;20037;-73
2023/10/20 09:41:17;;;;;;;3.60;1.80;;;;;;;;;;5014989;28;20188;-73
2023/10/20 09:43:53;;;;;;;2.50;1.63;;;;;;;;;;5024884;28;20600;-73
2023/10/20 09:46:23;;;;;;;3.13;1.70;;;;;;;;;;5027694;28;20373;-73
2023/10/20 09:48:51;;;;;;;2.58;1.70;;;;;;;;;;5027260;28;20512;-73
2023/10/20 09:51:19;;;;;;;2.05;1.70;;;;;;;;;;5030053;28;20037;-73
2023/10/20 09:53:45;;;;;;;3.35;2.38;;;;;;;;;;5040116;28;20126;-73
2023/10/20 09:56:12;;;;;;;3.03;2.42;;;;;;;;;;5042221;28;20033;-73
2023/10/20 09:58:38;;;;;;;1.80;1.38;;;;;;;;;;5025672;28;20044;-73
2023/10/20 10:01:06;;;;;;;2.00;1.60;;;;;;;;;;5027869;28;20045;-73
2023/10/20 10:03:40;;;;;;;1.77;1.17;;;;;;;;;;5008324;28;20037;-73
2023/10/20 10:06:16;;;;;;;2.42;1.20;;;;;;;;;;5026254;28;20044;-73
2023/10/20 10:08:43;;;;;;;3.05;1.60;;;;;;;;;;5025398;28;20535;-73
2023/10/20 10:11:19;;;;;;;1.60;1.30;;;;;;;;;;5022268;28;20037;-73
2023/10/20 10:13:44;;;;;;;1.27;1.15;;;;;;;;;;5020506;28;20036;-73
2023/10/20 10:16:13;;;;;;;1.77;1.13;;;;;;;;;;5023836;28;20034;-74
2023/10/20 10:18:47;;;;;;;4.40;1.30;;;;;;;;;;5025291;28;20516;-73
2023/10/20 10:21:24;;;;;;;2.20;0.93;;;;;;;;;;5025648;28;20042;-73
2023/10/20 10:24:16;;;;;;;4.10;0.90;;;;;;;;;;5021901;28;20056;-73
2023/10/20 10:27:06;;;;;;;1.77;1.05;;;;;;;;;;5024809;28;20040;-73
2023/10/20 10:29:58;;;;;;;1.33;1.00;;;;;;;;;;5026013;28;20435;-73
2023/10/20 10:32:27;;;;;;;1.60;1.20;;;;;;;;;;5012918;28;20068;-73
2023/10/20 10:34:53;;;;;;;4.18;1.83;;;;;;;;;;5025574;28;20056;-73
2023/10/20 10:37:28;;;;;;;3.00;2.03;;;;;;;;;;5007847;28;20424;-73
2023/10/20 10:40:04;;;;;;;3.50;2.53;;;;;;;;;;5024226;28;20068;-73
2023/10/20 10:42:29;;;;;;;4.22;2.70;;;;;;;;;;5025565;28;20065;-73
2023/10/20 10:44:55;;;;;;;5.32;2.60;;;;;;;;;;5025261;28;20069;-73
2023/10/20 10:47:20;;;;;;;4.65;2.55;;;;;;;;;;5025835;28;20424;-73
2023/10/20 10:49:47;;;;;;;11.43;2.80;;;;;;;;;;5024076;28;20040;-73
2023/10/20 10:52:13;;;;;;;5.60;2.72;;;;;;;;;;5025478;28;20037;-73
2023/10/20 10:54:38;;;;;;;8.35;2.97;;;;;;;;;;5025058;28;20037;-73
2023/10/20 10:57:05;;;;;;;4.00;2.50;;;;;;;;;;5025094;28;20152;-73
2023/10/20 10:59:31;;;;;;;6.65;3.00;;;;;;;;;;5004823;28;20038;-73
2023/10/20 11:01:57;;;;;;;4.00;2.25;;;;;;;;;;5007122;28;20041;-73
2023/10/20 11:04:23;;;;;;;4.90;2.80;;;;;;;;;;5025175;28;20029;-73
2023/10/20 11:06:49;;;;;;;3.92;2.30;;;;;;;;;;5014509;28;20026;-73
2023/10/20 11:09:19;;;;;;;3.53;2.03;;;;;;;;;;5005636;28;20398;-73
2023/10/20 11:11:47;;;;;;;2.70;1.90;;;;;;;;;;5021188;28;20132;-73
2023/10/20 11:14:16;;;;;;;10.77;3.45;;;;;;;;;;5020348;28;20120;-73
2023/10/20 11:16:42;;;;;;;3.30;1.88;;;;;;;;;;5029401;28;20041;-72
2023/10/20 11:19:07;;;;;;;2.35;1.70;;;;;;;;;;5024955;28;20664;-73
2023/10/20 11:21:49;;;;;;;2.95;1.90;;;;;;;;;;5023547;28;20128;-73
2023/10/20 11:24:37;;;;;;;3.47;2.08;;;;;;;;;;5024340;28;20055;-73
2023/10/20 11:27:07;;;;;;;2.08;1.65;;;;;;;;;;5023704;28;20091;-73
2023/10/20 11:29:35;;;;;;;4.25;2.00;;;;;;;;;;5003252;28;20068;-74
2023/10/20 11:32:05;;;;;;;2.97;2.13;;;;;;;;;;5005695;28;20524;-72
2023/10/20 11:34:33;;;;;;;3.45;2.40;;;;;;;;;;5023662;28;20044;-73
2023/10/20 11:36:59;;;;;;;4.47;2.40;;;;;;;;;;5024041;28;20111;-72
2023/10/20 11:39:25;;;;;;;3.25;2.30;;;;;;;;;;5022265;28;20038;-72
2023/10/20 11:41:51;;;;;;;3.45;2.30;;;;;;;;;;5006377;28;20045;-73
2023/10/20 11:44:17;;;;;;;5.10;2.20;;;;;;;;;;5018485;28;20513;-72
2023/10/20 11:46:43;;;;;;;2.97;2.20;;;;;;;;;;5011774;28;20524;-72
2023/10/20 11:49:10;;;;;;;5.63;3.90;;;;;;;;;;5011621;28;20029;-73
2023/10/20 11:51:37;;;;;;;5.05;2.85;;;;;;;;;;5014976;28;20095;-72
2023/10/20 11:54:03;;;;;;;4.72;2.75;;;;;;;;;;5007078;28;20121;-72
2023/10/20 11:56:29;;;;;;;5.93;3.08;;;;;;;;;;5024186;28;20058;-72
2023/10/20 11:58:54;;;;;;;4.10;2.72;;;;;;;;;;5025081;28;20053;-72
2023/10/20 12:01:20;;;;;;;6.35;3.10;;;;;;;;;;5024970;28;20427;-72
2023/10/20 12:03:45;;;;;;;5.15;3.30;;;;;;;;;;5006615;28;20124;-72
2023/10/20 12:06:10;;;;;;;6.35;3.38;;;;;;;;;;5006944;28;20424;-72
2023/10/20 12:08:36;;;;;;;7.68;3.67;;;;;;;;;;5024414;28;20046;-73
2023/10/20 12:11:02;;;;;;;5.28;3.60;;;;;;;;;;5024742;28;20035;-72
2023/10/20 12:13:27;;;;;;;7.45;3.85;;;;;;;;;;5025188;28;20040;-72
2023/10/20 12:15:52;;;;;;;5.07;3.47;;;;;;;;;;5024247;28;20041;-72
2023/10/20 12:18:18;;;;;;;5.72;3.28;;;;;;;;;;5006797;28;20428;-72
2023/10/20 12:20:43;;;;;;;6.55;3.95;;;;;;;;;;5024191;28;20045;-72
2023/10/20 12:23:09;;;;;;;5.45;3.33;;;;;;;;;;5024473;28;20037;-72
2023/10/20 12:25:35;;;;;;;5.63;3.88;;;;;;;;;;5024306;28;20091;-72
2023/10/20 12:28:00;;;;;;;5.47;3.80;;;;;;;;;;5025179;28;20033;-72
2023/10/20 12:30:26;;;;;;;8.48;4.15;;;;;;;;;;5026222;28;20053;-72
2023/10/20 12:32:52;;;;;;;7.03;3.60;;;;;;;;;;5033894;28;20476;-73
2023/10/20 12:35:17;;;;;;;8.73;4.03;;;;;;;;;;5023576;28;20485;-72
2023/10/20 12:37:43;;;;;;;6.63;3.42;;;;;;;;;;5028690;28;20029;-72
2023/10/20 12:40:08;;;;;;;6.93;4.35;;;;;;;;;;5004479;28;20041;-72
2023/10/20 12:42:35;;;;;;;8.30;3.95;;;;;;;;;;5024165;28;20037;-72
2023/10/20 12:45:03;;;;;;;6.90;3.85;;;;;;;;;;5006437;28;20033;-72
2023/10/20 12:47:29;;;;;;;6.50;3.95;;;;;;;;;;5019314;28;20056;-72
2023/10/20 12:49:55;;;;;;;8.35;3.97;;;;;;;;;;5023409;28;20037;-72
2023/10/20 12:52:20;;;;;;;8.43;4.10;;;;;;;;;;5024629;28;20041;-72
2023/10/20 12:54:46;;;;;;;7.40;3.70;;;;;;;;;;5022407;28;20045;-72
2023/10/20 12:57:12;;;;;;;5.07;3.45;;;;;;;;;;5006515;28;20523;-72
2023/10/20 12:59:38;;;;;;;8.60;3.67;;;;;;;;;;5023921;28;20037;-72
2023/10/20 13:02:04;;;;;;;4.13;2.83;;;;;;;;;;5023590;28;20065;-72
2023/10/20 13:04:30;;;;;;;5.15;3.25;;;;;;;;;;5023559;28;20026;-72
2023/10/20 13:06:55;;;;;;;3.78;2.78;;;;;;;;;;5023485;28;20029;-72
2023/10/20 13:09:21;;;;;;;4.43;2.78;;;;;;;;;;5020028;28;20033;-72
2023/10/20 13:11:48;;;;;;;5.63;2.92;;;;;;;;;;5021008;28;20047;-72
2023/10/20 13:14:14;;;;;;;5.45;3.20;;;;;;;;;;5021059;28;20138;-72
2023/10/20 13:16:39;;;;;;;5.55;3.05;;;;;;;;;;5021088;28;20040;-72
2023/10/20 13:19:06;;;;;;;3.58;2.72;;;;;;;;;;5020300;28;20381;-72
2023/10/20 13:21:31;;;;;;;4.70;3.00;;;;;;;;;;5014658;28;20033;-72
2023/10/20 13:23:57;;;;;;;3.80;2.90;;;;;;;;;;5021339;28;20871;-73
2023/10/20 13:26:22;;;;;;;4.55;2.75;;;;;;;;;;5021262;28;20033;-72
2023/10/20 13:28:48;;;;;;;4.75;2.88;;;;;;;;;;5020769;28;20592;-72
2023/10/20 13:31:16;;;;;;;4.70;2.70;;;;;;;;;;5003732;28;20083;-72
2023/10/20 13:33:41;;;;;;;3.83;2.35;;;;;;;;;;5021044;28;20156;-72
2023/10/20 13:36:10;;;;;;;3.95;2.28;;;;;;;;;;5020873;28;20132;-72
2023/10/20 13:38:37;;;;;;;3.00;2.17;;;;;;;;;;5021254;28;20041;-72
2023/10/20 13:41:04;;;;;;;3.20;2.50;;;;;;;;;;5003491;28;20419;-72
2023/10/20 13:43:30;;;;;;;3.28;2.40;;;;;;;;;;5021476;28;20416;-72
2023/10/20 13:45:55;;;;;;;3.22;2.40;;;;;;;;;;5003367;28;20021;-73
2023/10/20 13:48:21;;;;;;;2.65;2.10;;;;;;;;;;5022038;28;20503;-72
2023/10/20 13:50:46;;;;;;;3.67;2.53;;;;;;;;;;5025251;28;20045;-72
2023/10/20 13:53:14;;;;;;;7.45;2.58;;;;;;;;;;5032287;28;20072;-72
2023/10/20 13:55:41;;;;;;;4.38;2.63;;;;;;;;;;5033203;28;20054;-72
2023/10/20 13:58:07;;;;;;;5.50;2.60;;;;;;;;;;5021604;28;20532;-72
2023/10/20 14:00:33;;;;;;;3.65;2.53;;;;;;;;;;5024239;28;20077;-72
2023/10/20 14:03:03;;;;;;;5.07;2.55;;;;;;;;;;5024844;28;20052;-72
2023/10/20 14:05:31;;;;;;;3.67;2.60;;;;;;;;;;5005940;28;20587;-72
2023/10/20 14:07:58;;;;;;;3.00;2.30;;;;;;;;;;5004295;28;20033;-72
2023/10/20 14:10:24;;;;;;;3.67;2.60;;;;;;;;;;5004759;28;20033;-72
2023/10/20 14:12:49;;;;;;;3.50;2.45;;;;;;;;;;5004965;28;20100;-72
2023/10/20 14:15:15;;;;;;;3.10;2.58;;;;;;;;;;5003026;28;20046;-72
2023/10/20 14:17:41;;;;;;;3.30;2.55;;;;;;;;;;5003179;28;20061;-72
2023/10/20 14:20:08;;;;;;;4.15;2.28;;;;;;;;;;4992991;28;20064;-72
2023/10/20 14:22:34;;;;;;;5.60;2.60;;;;;;;;;;5004579;28;20574;-72
2023/10/20 14:24:59;;;;;;;4.40;2.45;;;;;;;;;;5004394;28;20505;-74
2023/10/20 14:27:25;;;;;;;4.38;2.17;;;;;;;;;;5012740;28;20030;-74
2023/10/20 14:29:50;;;;;;;2.83;2.25;;;;;;;;;;5017729;28;20613;-74
2023/10/20 14:32:16;;;;;;;3.90;2.08;;;;;;;;;;5023892;28;20034;-74
2023/10/20 14:34:41;;;;;;;3.80;2.50;;;;;;;;;;5023759;28;20057;-74
2023/10/20 14:37:07;;;;;;;3.20;2.15;;;;;;;;;;5022915;28;20033;-74
2023/10/20 14:39:35;;;;;;;3.10;2.20;;;;;;;;;;5015323;28;20037;-74
2023/10/20 14:42:00;;;;;;;2.90;2.20;;;;;;;;;;5043781;28;20045;-74
2023/10/20 14:44:26;;;;;;;2.75;1.80;;;;;;;;;;5043697;28;20059;-73
2023/10/20 14:46:52;;;;;;;2.58;1.90;;;;;;;;;;5042463;28;20055;-74
2023/10/20 14:49:17;;;;;;;3.38;2.10;;;;;;;;;;5043766;28;20021;-74
2023/10/20 14:51:43;;;;;;;4.95;2.22;;;;;;;;;;5043508;28;20071;-74
2023/10/20 14:54:08;;;;;;;2.35;1.75;;;;;;;;;;5002472;28;20057;-74
2023/10/20 14:56:34;;;;;;;3.90;1.88;;;;;;;;;;5002166;28;20064;-74
2023/10/20 14:59:00;;;;;;;3.15;1.77;;;;;;;;;;5002206;28;20068;-74
2023/10/20 15:01:26;;;;;;;4.10;1.70;;;;;;;;;;5004109;28;20871;-74
2023/10/20 15:03:52;;;;;;;4.13;1.50;;;;;;;;;;5001526;28;20041;-73